createdAt,value
2022-08-26T00:01:31.282Z,3.88
2022-08-26T00:03:58.824Z,3.60
2022-08-26T00:06:26.216Z,3.10
2022-08-26T00:08:53.339Z,3.60
2022-08-26T00:11:26.599Z,3.20
2022-08-26T00:13:55.258Z,3.60
2022-08-26T00:16:25.477Z,3.67
2022-08-26T00:18:53.084Z,3.88
2022-08-26T00:21:20.071Z,3.85
2022-08-26T00:23:47.164Z,3.33
2022-08-26T00:26:14.214Z,3.70
2022-08-26T00:28:41.409Z,3.28
2022-08-26T00:31:11.149Z,3.63
2022-08-26T00:33:39.735Z,4.00
2022-08-26T00:36:07.423Z,4.53
2022-08-26T00:38:37.861Z,4.25
2022-08-26T00:41:06.551Z,4.20
2022-08-26T00:43:46.199Z,4.85
2022-08-26T00:46:21.569Z,3.78
2022-08-26T00:48:53.763Z,3.90
2022-08-26T00:51:24.779Z,3.67
2022-08-26T00:54:02.003Z,4.20
2022-08-26T00:56:38.258Z,4.75
2022-08-26T00:59:08.016Z,5.20
2022-08-26T01:01:36.253Z,4.38
2022-08-26T01:04:03.270Z,3.70
2022-08-26T01:06:31.216Z,4.20
2022-08-26T01:08:58.073Z,5.07
2022-08-26T01:11:26.324Z,3.95
2022-08-26T01:13:56.022Z,4.88
2022-08-26T01:16:24.856Z,4.00
2022-08-26T01:18:58.488Z,4.88
2022-08-26T01:21:36.324Z,5.20
2022-08-26T01:24:10.328Z,4.72
2022-08-26T01:26:41.201Z,4.30
2022-08-26T01:29:15.853Z,3.92
2022-08-26T01:31:49.487Z,5.28
2022-08-26T01:34:21.768Z,5.35
2022-08-26T01:36:51.625Z,5.38
2022-08-26T01:39:19.519Z,5.43
2022-08-26T01:41:47.477Z,5.72
2022-08-26T01:44:24.367Z,4.70
2022-08-26T01:46:52.961Z,5.10
2022-08-26T01:49:20.792Z,4.78
2022-08-26T01:51:51.489Z,5.45
2022-08-26T01:54:20.523Z,5.72
2022-08-26T01:56:51.317Z,6.40
2022-08-26T01:59:20.177Z,6.43
2022-08-26T02:01:48.803Z,6.82
2022-08-26T02:04:27.280Z,7.95
2022-08-26T02:06:56.412Z,6.22
2022-08-26T02:09:24.466Z,7.95
2022-08-26T02:11:52.665Z,7.53
2022-08-26T02:14:26.830Z,8.63
2022-08-26T02:16:55.115Z,9.83
2022-08-26T02:19:34.348Z,9.48
2022-08-26T02:22:04.710Z,10.65
2022-08-26T02:24:51.797Z,12.27
2022-08-26T02:27:32.371Z,13.25
2022-08-26T02:30:15.297Z,14.32
2022-08-26T02:32:44.191Z,14.93
2022-08-26T02:35:13.543Z,14.02
2022-08-26T02:37:45.048Z,13.70
2022-08-26T02:40:15.274Z,13.63
2022-08-26T02:42:42.510Z,13.60
2022-08-26T02:45:10.573Z,14.52
2022-08-26T02:47:37.389Z,14.10
2022-08-26T02:50:05.082Z,13.65
2022-08-26T02:52:32.326Z,15.38
2022-08-26T02:54:58.973Z,15.70
2022-08-26T02:57:26.350Z,16.42
2022-08-26T02:59:53.004Z,14.90
2022-08-26T03:02:19.744Z,16.30
2022-08-26T03:04:58.056Z,16.15
2022-08-26T03:07:30.058Z,13.93
2022-08-26T03:09:57.247Z,16.27
2022-08-26T03:12:24.252Z,18.20
2022-08-26T03:14:52.705Z,17.45
2022-08-26T03:17:19.666Z,17.70
2022-08-26T03:19:46.328Z,18.77
2022-08-26T03:22:14.541Z,18.48
2022-08-26T03:24:41.486Z,19.50
2022-08-26T03:27:13.186Z,20.90
2022-08-26T03:29:59.797Z,20.15
2022-08-26T03:32:27.115Z,22.27
2022-08-26T03:34:54.467Z,21.95
2022-08-26T03:37:21.497Z,23.23
2022-08-26T03:39:48.874Z,23.60
2022-08-26T03:42:16.041Z,23.08
2022-08-26T03:44:42.949Z,24.90
2022-08-26T03:47:10.835Z,23.20
2022-08-26T03:49:37.902Z,24.88
2022-08-26T03:52:05.032Z,24.13
2022-08-26T03:54:32.829Z,24.65
2022-08-26T03:56:59.669Z,23.48
2022-08-26T03:59:26.865Z,24.65
2022-08-26T04:01:54.772Z,25.35
2022-08-26T04:04:22.767Z,25.02
2022-08-26T04:06:57.490Z,24.33
2022-08-26T04:09:24.458Z,25.38
2022-08-26T04:11:51.658Z,26.52
2022-08-26T04:14:20.960Z,27.35
2022-08-26T04:16:48.534Z,26.30
2022-08-26T04:19:16.548Z,25.50
2022-08-26T04:21:45.032Z,25.23
2022-08-26T04:24:15.450Z,27.08
2022-08-26T04:26:43.690Z,27.13
2022-08-26T04:29:18.056Z,25.08
2022-08-26T04:31:45.337Z,26.23
2022-08-26T04:34:12.276Z,24.73
2022-08-26T04:36:42.963Z,27.17
2022-08-26T04:39:12.464Z,25.55
2022-08-26T04:41:39.468Z,26.13
2022-08-26T04:44:07.692Z,27.23
2022-08-26T04:46:34.976Z,25.45
2022-08-26T04:49:02.301Z,26.33
2022-08-26T04:51:29.182Z,26.17
2022-08-26T04:53:57.566Z,25.65
2022-08-26T04:56:26.029Z,26.33
2022-08-26T04:58:52.781Z,25.40
2022-08-26T05:01:20.571Z,25.05
2022-08-26T05:03:48.904Z,25.35
2022-08-26T05:06:16.652Z,24.38
2022-08-26T05:08:45.889Z,24.83
2022-08-26T05:11:13.433Z,24.52
2022-08-26T05:13:40.315Z,25.92
2022-08-26T05:16:11.565Z,24.10
2022-08-26T05:18:39.768Z,22.63
2022-08-26T05:21:07.143Z,24.17
2022-08-26T05:23:36.209Z,23.15
2022-08-26T05:26:07.969Z,23.23
2022-08-26T05:28:35.592Z,23.38
2022-08-26T05:31:12.363Z,22.77
2022-08-26T05:33:41.340Z,20.60
2022-08-26T05:36:15.076Z,21.50
2022-08-26T05:38:42.593Z,20.83
2022-08-26T05:41:19.043Z,21.65
2022-08-26T05:43:45.706Z,20.52
2022-08-26T05:46:12.883Z,20.48
2022-08-26T05:48:39.829Z,20.50
2022-08-26T05:51:12.498Z,20.17
2022-08-26T05:53:43.986Z,19.58
2022-08-26T05:56:27.579Z,19.85
2022-08-26T05:58:56.355Z,19.50
2022-08-26T06:01:27.224Z,19.13
2022-08-26T06:03:59.749Z,19.75
2022-08-26T06:06:32.852Z,18.90
2022-08-26T06:09:01.735Z,19.67
2022-08-26T06:11:32.052Z,19.67
2022-08-26T06:14:03.846Z,18.20
2022-08-26T06:16:34.523Z,18.05
2022-08-26T06:19:03.045Z,19.92
2022-08-26T06:21:33.178Z,18.05
2022-08-26T06:24:22.082Z,17.42
2022-08-26T06:26:58.110Z,18.50
2022-08-26T06:29:26.127Z,16.90
2022-08-26T06:31:56.127Z,16.45
2022-08-26T06:34:26.631Z,16.83
2022-08-26T06:36:58.625Z,15.15
2022-08-26T06:39:25.521Z,15.20
2022-08-26T06:41:52.347Z,15.60
2022-08-26T06:44:19.361Z,15.75
2022-08-26T06:46:46.407Z,13.50
2022-08-26T06:49:17.617Z,14.68
2022-08-26T06:51:44.429Z,14.73
2022-08-26T06:54:11.420Z,14.93
2022-08-26T06:56:43.755Z,13.68
2022-08-26T06:59:12.085Z,11.75
2022-08-26T07:01:44.500Z,13.32
2022-08-26T07:04:14.572Z,15.10
2022-08-26T07:06:48.713Z,13.18
2022-08-26T07:09:17.118Z,12.52
2022-08-26T07:11:44.909Z,14.48
2022-08-26T07:14:12.193Z,13.23
2022-08-26T07:16:41.062Z,13.13
2022-08-26T07:19:11.078Z,13.32
2022-08-26T07:21:41.416Z,12.27
2022-08-26T07:24:10.962Z,13.00
2022-08-26T07:26:39.202Z,12.30
2022-08-26T07:29:12.327Z,11.50
2022-08-26T07:31:42.442Z,11.52
2022-08-26T07:34:13.530Z,11.82
2022-08-26T07:36:41.316Z,12.40
2022-08-26T07:39:08.836Z,11.10
2022-08-26T07:41:36.589Z,11.15
2022-08-26T07:44:03.622Z,11.15
2022-08-26T07:46:31.559Z,10.38
2022-08-26T07:48:58.980Z,11.32
2022-08-26T07:51:27.151Z,9.48
2022-08-26T07:53:55.203Z,9.40
2022-08-26T07:56:23.161Z,9.77
2022-08-26T07:58:53.833Z,10.50
2022-08-26T08:01:23.693Z,10.30
2022-08-26T08:03:52.264Z,9.70
2022-08-26T08:06:21.924Z,11.00
2022-08-26T08:08:50.859Z,10.13
2022-08-26T08:11:22.636Z,9.38
2022-08-26T08:13:55.916Z,9.73
2022-08-26T08:16:32.372Z,10.60
2022-08-26T08:19:00.406Z,9.15
2022-08-26T08:21:27.566Z,9.93
2022-08-26T08:23:57.262Z,8.73
2022-08-26T08:26:25.346Z,8.85
2022-08-26T08:28:56.778Z,7.75
2022-08-26T08:34:14.333Z,9.38
2022-08-26T08:36:42.158Z,8.68
2022-08-26T08:39:09.492Z,8.90
2022-08-26T08:41:46.452Z,9.38
2022-08-26T08:44:19.850Z,9.70
2022-08-26T08:47:01.317Z,9.95
2022-08-26T08:49:29.238Z,10.10
2022-08-26T08:52:05.190Z,10.43
2022-08-26T08:54:32.717Z,9.43
2022-08-26T08:57:12.776Z,9.15
2022-08-26T08:59:53.322Z,9.35
2022-08-26T09:02:31.174Z,8.95
2022-08-26T09:05:02.665Z,8.68
2022-08-26T09:07:50.393Z,8.68
2022-08-26T09:10:37.497Z,8.95
2022-08-26T09:13:13.710Z,8.70
2022-08-26T09:16:00.681Z,8.85
2022-08-26T09:19:04.527Z,8.90
2022-08-26T09:21:32.347Z,7.95
2022-08-26T09:24:00.077Z,8.55
2022-08-26T09:26:30.964Z,8.23
2022-08-26T09:29:02.087Z,7.78
2022-08-26T09:31:31.590Z,7.40
2022-08-26T09:34:17.170Z,8.50
2022-08-26T09:36:55.694Z,6.63
2022-08-26T09:39:28.351Z,7.38
2022-08-26T09:42:12.737Z,7.68
2022-08-26T09:45:03.548Z,7.18
2022-08-26T09:47:39.166Z,6.18
2022-08-26T09:50:36.435Z,6.40
2022-08-26T09:53:20.995Z,5.47
2022-08-26T09:56:33.598Z,5.07
2022-08-26T09:59:01.716Z,5.75
2022-08-26T10:01:33.285Z,4.88
2022-08-26T10:04:10.979Z,4.00
2022-08-26T10:06:54.352Z,4.38
2022-08-26T10:09:23.597Z,5.40
2022-08-26T10:11:53.851Z,5.57
2022-08-26T10:14:29.723Z,5.30
2022-08-26T10:17:11.241Z,5.68
2022-08-26T10:19:56.986Z,5.50
2022-08-26T10:22:28.601Z,5.82
2022-08-26T10:25:00.572Z,7.15
2022-08-26T10:27:59.273Z,6.07
2022-08-26T10:30:33.500Z,5.88
2022-08-26T10:33:12.397Z,6.20
2022-08-26T10:35:51.886Z,6.68
2022-08-26T10:38:25.536Z,6.90
2022-08-26T10:41:09.760Z,6.28
2022-08-26T10:43:42.724Z,5.63
2022-08-26T10:46:18.763Z,5.63
2022-08-26T10:48:48.286Z,5.90
2022-08-26T10:51:23.086Z,5.90
2022-08-26T10:53:58.615Z,7.28
2022-08-26T10:59:16.192Z,5.13
2022-08-26T11:02:08.599Z,5.35
2022-08-26T11:04:54.940Z,4.97
2022-08-26T11:07:41.705Z,5.40
2022-08-26T11:10:12.824Z,5.72
2022-08-26T11:12:39.534Z,6.32
2022-08-26T11:15:10.911Z,6.90
2022-08-26T11:17:55.282Z,5.97
2022-08-26T11:20:54.406Z,5.10
2022-08-26T11:23:22.294Z,4.88
2022-08-26T11:26:01.020Z,5.65
2022-08-26T11:28:40.417Z,4.50
2022-08-26T11:31:18.355Z,4.85
2022-08-26T11:34:03.951Z,4.30
2022-08-26T11:36:41.476Z,4.63
2022-08-26T11:39:30.994Z,5.22
2022-08-26T11:42:16.031Z,3.42
2022-08-26T11:44:49.172Z,3.88
2022-08-26T11:47:25.125Z,4.28
2022-08-26T11:52:32.699Z,4.28
2022-08-26T11:55:14.637Z,3.65
2022-08-26T11:57:47.621Z,3.72
2022-08-26T12:00:24.228Z,3.22
2022-08-26T12:02:52.473Z,3.28
2022-08-26T12:05:30.840Z,3.25
2022-08-26T12:08:06.262Z,3.50
2022-08-26T12:10:34.553Z,3.30
2022-08-26T12:13:03.272Z,3.13
2022-08-26T12:15:32.221Z,3.22
2022-08-26T12:18:17.343Z,3.55
2022-08-26T12:20:54.051Z,3.05
2022-08-26T12:23:46.803Z,3.50
2022-08-26T12:26:32.318Z,3.15
2022-08-26T12:29:26.565Z,4.03
2022-08-26T12:32:13.433Z,3.90
2022-08-26T12:34:42.555Z,3.17
2022-08-26T12:37:12.196Z,3.03
2022-08-26T12:39:42.656Z,2.80
2022-08-26T12:42:12.147Z,2.50
2022-08-26T12:44:58.372Z,2.80
2022-08-26T12:47:41.804Z,3.20
2022-08-26T12:50:23.884Z,3.35
2022-08-26T12:52:58.860Z,2.05
2022-08-26T12:55:50.912Z,2.28
2022-08-26T12:58:36.033Z,2.80
2022-08-26T13:01:08.818Z,2.50
2022-08-26T13:03:38.475Z,2.45
2022-08-26T13:06:32.451Z,2.80
2022-08-26T13:09:06.449Z,2.00
2022-08-26T13:11:33.270Z,2.30
2022-08-26T13:14:06.887Z,1.98
2022-08-26T13:16:34.882Z,2.10
2022-08-26T13:19:05.313Z,2.08
2022-08-26T13:21:37.525Z,2.78
2022-08-26T13:24:11.733Z,2.20
2022-08-26T13:26:40.020Z,2.92
2022-08-26T13:29:10.197Z,2.40
2022-08-26T13:31:40.063Z,2.65
2022-08-26T13:34:09.239Z,2.15
2022-08-26T13:36:36.133Z,2.10
2022-08-26T13:39:03.783Z,2.72
2022-08-26T13:41:31.927Z,2.30
2022-08-26T13:43:59.400Z,2.70
2022-08-26T13:46:27.114Z,2.55
2022-08-26T13:48:54.503Z,2.10
2022-08-26T13:51:22.661Z,3.00
2022-08-26T13:53:50.824Z,2.83
2022-08-26T13:56:18.710Z,2.35
2022-08-26T13:58:46.566Z,2.13
2022-08-26T14:01:15.569Z,2.22
2022-08-26T14:03:42.736Z,2.63
2022-08-26T14:06:09.967Z,3.10
2022-08-26T14:08:38.149Z,2.80
2022-08-26T14:11:05.003Z,2.80
2022-08-26T14:13:31.683Z,2.30
2022-08-26T14:16:01.309Z,2.42
2022-08-26T14:18:33.309Z,2.67
2022-08-26T14:21:00.579Z,1.55
2022-08-26T14:23:27.549Z,1.85
2022-08-26T14:25:54.516Z,1.73
2022-08-26T14:28:21.242Z,1.98
2022-08-26T14:30:53.075Z,1.90
2022-08-26T14:33:25.550Z,1.67
2022-08-26T14:35:52.958Z,2.17
2022-08-26T14:38:19.516Z,2.05
2022-08-26T14:40:46.171Z,2.22
2022-08-26T14:43:15.289Z,1.52
2022-08-26T14:45:44.152Z,1.83
2022-08-26T14:48:10.957Z,2.33
2022-08-26T14:50:38.218Z,1.80
2022-08-26T14:53:23.482Z,1.50
2022-08-26T14:55:50.479Z,2.90
2022-08-26T14:58:17.164Z,1.92
2022-08-26T15:00:43.953Z,2.00
2022-08-26T15:03:10.666Z,1.75
2022-08-26T15:05:38.095Z,1.33
2022-08-26T15:08:10.142Z,1.85
2022-08-26T15:10:37.525Z,1.25
2022-08-26T15:13:04.640Z,1.35
2022-08-26T15:15:31.449Z,1.50
2022-08-26T15:17:58.196Z,1.88
2022-08-26T15:20:25.025Z,1.60
2022-08-26T15:22:51.757Z,1.88
2022-08-26T15:25:20.180Z,1.27
2022-08-26T15:27:47.144Z,1.58
2022-08-26T15:30:14.005Z,1.88
2022-08-26T15:32:40.683Z,1.27
2022-08-26T15:35:09.329Z,2.22
2022-08-26T15:37:36.533Z,1.80
2022-08-26T15:40:04.615Z,2.05
2022-08-26T15:42:31.387Z,1.70
2022-08-26T15:44:58.023Z,1.90
2022-08-26T15:47:24.891Z,2.00
2022-08-26T15:49:51.543Z,1.73
2022-08-26T15:52:18.343Z,1.58
2022-08-26T15:54:45.072Z,1.55
2022-08-26T15:57:13.604Z,1.35
2022-08-26T15:59:42.037Z,1.98
2022-08-26T16:02:09.546Z,1.83
2022-08-26T16:04:36.410Z,1.50
2022-08-26T16:07:04.318Z,1.67
2022-08-26T16:09:31.019Z,1.55
2022-08-26T16:11:58.067Z,1.60
2022-08-26T16:14:25.454Z,1.35
2022-08-26T16:16:52.331Z,1.23
2022-08-26T16:19:20.015Z,1.75
2022-08-26T16:21:47.197Z,1.35
2022-08-26T16:24:14.421Z,1.75
2022-08-26T16:26:42.664Z,1.23
2022-08-26T16:29:12.695Z,1.63
2022-08-26T16:31:39.487Z,1.20
2022-08-26T16:34:07.668Z,1.65
2022-08-26T16:36:36.574Z,1.67
2022-08-26T16:39:04.849Z,1.38
2022-08-26T16:41:31.952Z,1.42
2022-08-26T16:43:59.072Z,1.17
2022-08-26T16:46:27.822Z,2.03
2022-08-26T16:48:56.229Z,1.50
2022-08-26T16:51:24.842Z,1.38
2022-08-26T16:53:51.756Z,1.35
2022-08-26T16:56:21.472Z,1.92
2022-08-26T16:58:48.537Z,1.00
2022-08-26T17:01:16.214Z,1.27
2022-08-26T17:03:42.954Z,1.38
2022-08-26T17:06:09.887Z,1.30
2022-08-26T17:08:38.511Z,1.23
2022-08-26T17:11:05.669Z,1.35
2022-08-26T17:13:35.737Z,1.10
2022-08-26T17:16:05.217Z,1.10
2022-08-26T17:18:32.708Z,0.93
2022-08-26T17:21:05.240Z,0.88
2022-08-26T17:23:32.003Z,1.60
2022-08-26T17:25:58.599Z,1.27
2022-08-26T17:28:25.447Z,24.50
2022-08-26T17:30:52.110Z,0.85
2022-08-26T17:33:22.047Z,1.20
2022-08-26T17:35:51.689Z,1.35
2022-08-26T17:38:18.379Z,1.40
2022-08-26T17:40:45.221Z,0.98
2022-08-26T17:43:12.546Z,1.10
2022-08-26T17:45:40.387Z,1.05
2022-08-26T17:48:08.092Z,1.23
2022-08-26T17:50:35.209Z,1.13
2022-08-26T17:53:01.869Z,1.33
2022-08-26T17:55:29.089Z,1.20
2022-08-26T17:57:55.828Z,1.10
2022-08-26T18:00:27.996Z,1.20
2022-08-26T18:02:55.502Z,0.95
2022-08-26T18:05:22.750Z,0.93
2022-08-26T18:07:49.795Z,1.10
2022-08-26T18:10:18.949Z,1.05
2022-08-26T18:12:46.456Z,0.98
2022-08-26T18:15:15.652Z,0.80
2022-08-26T18:17:43.855Z,1.10
2022-08-26T18:20:14.027Z,1.00
2022-08-26T18:22:40.988Z,0.85
2022-08-26T18:25:08.421Z,0.80
2022-08-26T18:27:36.652Z,0.75
2022-08-26T18:30:13.399Z,0.85
2022-08-26T18:32:42.730Z,0.70
2022-08-26T18:35:10.312Z,0.75
2022-08-26T18:37:37.419Z,0.77
2022-08-26T18:40:07.046Z,0.80
2022-08-26T18:42:34.026Z,0.75
2022-08-26T18:45:00.803Z,0.70
2022-08-26T18:47:27.692Z,1.02
2022-08-26T18:49:54.779Z,0.90
2022-08-26T18:52:21.442Z,1.15
2022-08-26T18:54:50.434Z,0.98
2022-08-26T18:57:17.256Z,0.82
2022-08-26T18:59:43.948Z,0.90
2022-08-26T19:02:11.022Z,0.75
2022-08-26T19:04:40.964Z,1.05
2022-08-26T19:07:08.317Z,0.80
2022-08-26T19:09:35.999Z,0.85
2022-08-26T19:12:03.684Z,0.70
2022-08-26T19:14:31.138Z,0.88
2022-08-26T19:16:57.892Z,0.82
2022-08-26T19:19:24.547Z,0.80
2022-08-26T19:21:51.780Z,0.90
2022-08-26T19:24:19.559Z,0.90
2022-08-26T19:26:57.587Z,0.70
2022-08-26T19:29:33.861Z,0.90
2022-08-26T19:32:01.877Z,0.70
2022-08-26T19:34:29.518Z,0.45
2022-08-26T19:36:58.273Z,1.00
2022-08-26T19:39:26.121Z,1.17
2022-08-26T19:41:53.461Z,0.93
2022-08-26T19:44:41.069Z,0.85
2022-08-26T19:47:10.264Z,1.17
2022-08-26T19:49:37.767Z,1.50
2022-08-26T19:52:05.920Z,1.30
2022-08-26T19:54:32.824Z,0.95
2022-08-26T19:56:59.429Z,1.20
2022-08-26T19:59:26.163Z,1.05
2022-08-26T20:02:01.234Z,1.23
2022-08-26T20:04:32.576Z,1.23
2022-08-26T20:07:01.017Z,1.33
2022-08-26T20:09:34.035Z,1.45
2022-08-26T20:12:02.695Z,1.00
2022-08-26T20:14:30.639Z,1.15
2022-08-26T20:16:57.996Z,1.55
2022-08-26T20:19:43.600Z,1.08
2022-08-26T20:22:11.869Z,1.40
2022-08-26T20:24:38.712Z,1.10
2022-08-26T20:27:07.896Z,1.05
2022-08-26T20:29:36.825Z,0.82
2022-08-26T20:32:06.173Z,0.85
2022-08-26T20:34:34.180Z,0.90
2022-08-26T20:37:01.599Z,1.30
2022-08-26T20:39:29.565Z,1.02
2022-08-26T20:41:57.768Z,1.25
2022-08-26T20:44:25.505Z,1.27
2022-08-26T20:46:52.239Z,1.30
2022-08-26T20:49:19.305Z,1.55
2022-08-26T20:51:50.692Z,1.50
2022-08-26T20:54:19.086Z,1.35
2022-08-26T20:56:46.163Z,1.40
2022-08-26T20:59:14.096Z,1.17
2022-08-26T21:01:42.566Z,1.02
2022-08-26T21:04:13.749Z,1.50
2022-08-26T21:06:43.777Z,1.10
2022-08-26T21:09:18.298Z,1.00
2022-08-26T21:11:45.134Z,1.98
2022-08-26T21:14:16.862Z,1.23
2022-08-26T21:16:45.634Z,1.40
2022-08-26T21:19:15.821Z,1.17
2022-08-26T21:21:44.582Z,1.10
2022-08-26T21:24:11.373Z,1.20
2022-08-26T21:26:38.369Z,1.10
2022-08-26T21:29:07.767Z,0.98
2022-08-26T21:31:34.939Z,1.45
2022-08-26T21:34:01.714Z,0.98
2022-08-26T21:36:28.753Z,1.13
2022-08-26T21:38:57.120Z,1.00
2022-08-26T21:41:25.304Z,1.15
2022-08-26T21:43:55.193Z,1.05
2022-08-26T21:46:23.646Z,1.25
2022-08-26T21:49:02.206Z,1.10
2022-08-26T21:51:32.122Z,1.20
2022-08-26T21:54:00.209Z,1.25
2022-08-26T21:56:29.384Z,0.80
2022-08-26T21:58:56.817Z,1.25
2022-08-26T22:01:27.056Z,1.02
2022-08-26T22:03:54.408Z,1.40
2022-08-26T22:06:23.742Z,1.02
2022-08-26T22:08:51.331Z,0.95
2022-08-26T22:11:18.819Z,1.40
2022-08-26T22:13:46.895Z,0.73
2022-08-26T22:16:13.737Z,1.10
2022-08-26T22:18:43.752Z,1.30
2022-08-26T22:21:13.140Z,1.20
2022-08-26T22:23:40.489Z,1.25
2022-08-26T22:26:09.292Z,1.23
2022-08-26T22:28:36.310Z,1.10
2022-08-26T22:31:03.012Z,1.30
2022-08-26T22:33:29.755Z,1.20
2022-08-26T22:35:56.439Z,1.38
2022-08-26T22:38:23.822Z,1.10
2022-08-26T22:40:57.316Z,1.20
2022-08-26T22:43:25.549Z,1.30
2022-08-26T22:45:52.984Z,1.10
2022-08-26T22:48:22.226Z,0.90
2022-08-26T22:50:50.108Z,1.00
2022-08-26T22:53:18.078Z,1.05
2022-08-26T22:55:46.242Z,1.30
2022-08-26T22:58:15.317Z,1.30
2022-08-26T23:00:43.668Z,1.30
2022-08-26T23:03:10.954Z,1.38
2022-08-26T23:05:38.953Z,1.52
2022-08-26T23:08:07.489Z,1.33
2022-08-26T23:10:34.381Z,1.55
2022-08-26T23:13:01.684Z,1.40
2022-08-26T23:15:28.271Z,1.00
2022-08-26T23:17:58.571Z,0.90
2022-08-26T23:20:26.918Z,0.70
2022-08-26T23:22:54.218Z,1.20
2022-08-26T23:25:21.796Z,0.90
2022-08-26T23:27:49.384Z,1.10
2022-08-26T23:30:20.273Z,1.10
2022-08-26T23:32:47.499Z,1.05
2022-08-26T23:35:14.856Z,0.88
2022-08-26T23:37:46.145Z,1.30
2022-08-26T23:40:27.933Z,1.17
2022-08-26T23:42:56.665Z,1.00
2022-08-26T23:45:24.651Z,1.20
2022-08-26T23:47:51.789Z,1.20
2022-08-26T23:50:20.793Z,1.00
2022-08-26T23:53:06.326Z,1.83
2022-08-26T23:55:35.225Z,1.38
2022-08-26T23:58:01.982Z,1.35
